sensor_id;sensor_type;location;lat;lon;timestamp;pressure;altitude;pressure_sealevel;temperature;humidity
43420;BME280;29017;51.514;-0.178;2023-06-14T00:01:45;101166.00;;;20.16;29.70
43420;BME280;29017;51.514;-0.178;2023-06-14T00:04:13;101174.00;;;20.10;30.25
43420;BME280;29017;51.514;-0.178;2023-06-14T00:06:40;101172.34;;;20.08;30.62
43420;BME280;29017;51.514;-0.178;2023-06-14T00:09:08;101172.53;;;20.07;31.04
43420;BME280;29017;51.514;-0.178;2023-06-14T00:11:37;101178.94;;;20.06;31.42
43420;BME280;29017;51.514;-0.178;2023-06-14T00:14:07;101163.31;;;19.96;31.69
43420;BME280;29017;51.514;-0.178;2023-06-14T00:16:34;101164.53;;;19.87;32.03
43420;BME280;29017;51.514;-0.178;2023-06-14T00:19:02;101164.13;;;19.84;32.63
43420;BME280;29017;51.514;-0.178;2023-06-14T00:21:31;101167.22;;;19.81;32.59
43420;BME280;29017;51.514;-0.178;2023-06-14T00:23:59;101163.31;;;19.70;34.34
43420;BME280;29017;51.514;-0.178;2023-06-14T00:26:26;101174.63;;;19.66;34.30
43420;BME280;29017;51.514;-0.178;2023-06-14T00:28:54;101168.00;;;19.61;34.71
43420;BME280;29017;51.514;-0.178;2023-06-14T00:31:21;101185.88;;;19.61;34.98
43420;BME280;29017;51.514;-0.178;2023-06-14T00:33:48;101181.16;;;19.56;35.17
43420;BME280;29017;51.514;-0.178;2023-06-14T00:36:15;101189.16;;;19.50;35.85
43420;BME280;29017;51.514;-0.178;2023-06-14T00:38:42;101184.59;;;19.44;36.42
43420;BME280;29017;51.514;-0.178;2023-06-14T00:41:09;101192.78;;;19.42;37.18
43420;BME280;29017;51.514;-0.178;2023-06-14T00:43:36;101186.09;;;19.05;39.20
43420;BME280;29017;51.514;-0.178;2023-06-14T00:46:03;101189.00;;;19.04;39.37
43420;BME280;29017;51.514;-0.178;2023-06-14T00:48:31;101187.84;;;18.85;40.18
43420;BME280;29017;51.514;-0.178;2023-06-14T00:50:59;101187.09;;;18.57;40.98
43420;BME280;29017;51.514;-0.178;2023-06-14T00:53:31;101179.03;;;18.50;41.58
43420;BME280;29017;51.514;-0.178;2023-06-14T00:56:01;101185.59;;;18.48;42.30
43420;BME280;29017;51.514;-0.178;2023-06-14T00:58:28;101178.38;;;18.42;43.25
43420;BME280;29017;51.514;-0.178;2023-06-14T01:00:55;101184.34;;;18.44;43.26
43420;BME280;29017;51.514;-0.178;2023-06-14T01:03:23;101189.84;;;18.42;43.67
43420;BME280;29017;51.514;-0.178;2023-06-14T01:05:59;101199.50;;;18.43;44.96
43420;BME280;29017;51.514;-0.178;2023-06-14T01:11:20;101188.84;;;18.43;46.32
43420;BME280;29017;51.514;-0.178;2023-06-14T01:13:51;101189.63;;;18.37;47.04
43420;BME280;29017;51.514;-0.178;2023-06-14T01:16:19;101199.63;;;18.35;46.96
43420;BME280;29017;51.514;-0.178;2023-06-14T01:18:47;101203.56;;;18.11;47.34
43420;BME280;29017;51.514;-0.178;2023-06-14T01:21:25;101198.75;;;18.00;48.42
43420;BME280;29017;51.514;-0.178;2023-06-14T01:23:52;101197.44;;;17.89;48.56
43420;BME280;29017;51.514;-0.178;2023-06-14T01:26:23;101203.31;;;17.85;49.17
43420;BME280;29017;51.514;-0.178;2023-06-14T01:28:50;101193.69;;;17.84;49.96
43420;BME280;29017;51.514;-0.178;2023-06-14T01:31:20;101197.81;;;17.86;50.28
43420;BME280;29017;51.514;-0.178;2023-06-14T01:33:52;101199.41;;;17.81;51.52
43420;BME280;29017;51.514;-0.178;2023-06-14T01:36:19;101190.47;;;17.67;52.29
43420;BME280;29017;51.514;-0.178;2023-06-14T01:38:48;101185.09;;;17.61;53.09
43420;BME280;29017;51.514;-0.178;2023-06-14T01:41:18;101183.25;;;17.61;54.01
43420;BME280;29017;51.514;-0.178;2023-06-14T01:43:47;101190.41;;;17.61;54.82
43420;BME280;29017;51.514;-0.178;2023-06-14T01:46:15;101176.28;;;17.60;55.48
43420;BME280;29017;51.514;-0.178;2023-06-14T01:48:43;101179.28;;;17.57;56.46
43420;BME280;29017;51.514;-0.178;2023-06-14T01:51:10;101183.88;;;17.48;57.59
43420;BME280;29017;51.514;-0.178;2023-06-14T01:53:37;101178.53;;;17.42;58.23
43420;BME280;29017;51.514;-0.178;2023-06-14T01:56:04;101182.53;;;17.17;59.88
43420;BME280;29017;51.514;-0.178;2023-06-14T01:58:32;101168.97;;;17.12;60.46
43420;BME280;29017;51.514;-0.178;2023-06-14T02:00:59;101170.19;;;16.94;61.52
43420;BME280;29017;51.514;-0.178;2023-06-14T02:03:27;101168.28;;;16.88;62.02
43420;BME280;29017;51.514;-0.178;2023-06-14T02:05:54;101165.25;;;16.91;62.15
43420;BME280;29017;51.514;-0.178;2023-06-14T02:08:22;101167.09;;;16.91;62.29
43420;BME280;29017;51.514;-0.178;2023-06-14T02:10:51;101171.38;;;16.92;62.81
43420;BME280;29017;51.514;-0.178;2023-06-14T02:13:18;101166.97;;;16.99;62.24
43420;BME280;29017;51.514;-0.178;2023-06-14T02:15:45;101163.50;;;16.98;62.20
43420;BME280;29017;51.514;-0.178;2023-06-14T02:18:12;101162.88;;;16.96;62.10
43420;BME280;29017;51.514;-0.178;2023-06-14T02:20:39;101162.13;;;16.88;62.38
43420;BME280;29017;51.514;-0.178;2023-06-14T02:23:06;101157.53;;;16.82;62.54
43420;BME280;29017;51.514;-0.178;2023-06-14T02:25:35;101153.88;;;16.83;63.00
43420;BME280;29017;51.514;-0.178;2023-06-14T02:28:03;101153.72;;;16.84;62.51
43420;BME280;29017;51.514;-0.178;2023-06-14T02:30:30;101157.81;;;16.87;62.47
43420;BME280;29017;51.514;-0.178;2023-06-14T02:32:57;101159.47;;;16.88;62.40
43420;BME280;29017;51.514;-0.178;2023-06-14T02:35:25;101169.28;;;16.87;62.82
43420;BME280;29017;51.514;-0.178;2023-06-14T02:37:53;101166.44;;;16.89;63.00
43420;BME280;29017;51.514;-0.178;2023-06-14T02:40:20;101166.16;;;16.84;63.12
43420;BME280;29017;51.514;-0.178;2023-06-14T02:42:48;101156.09;;;16.79;63.51
43420;BME280;29017;51.514;-0.178;2023-06-14T02:45:15;101154.81;;;16.75;63.61
43420;BME280;29017;51.514;-0.178;2023-06-14T02:47:41;101151.34;;;16.75;63.62
43420;BME280;29017;51.514;-0.178;2023-06-14T02:50:09;101156.00;;;16.73;64.24
43420;BME280;29017;51.514;-0.178;2023-06-14T02:52:36;101150.69;;;16.73;64.33
43420;BME280;29017;51.514;-0.178;2023-06-14T02:55:04;101150.78;;;16.64;64.68
43420;BME280;29017;51.514;-0.178;2023-06-14T02:57:31;101155.84;;;16.59;65.08
43420;BME280;29017;51.514;-0.178;2023-06-14T02:59:58;101159.84;;;16.55;65.20
43420;BME280;29017;51.514;-0.178;2023-06-14T03:02:25;101162.97;;;16.59;65.25
43420;BME280;29017;51.514;-0.178;2023-06-14T03:04:52;101164.25;;;16.63;65.64
43420;BME280;29017;51.514;-0.178;2023-06-14T03:07:19;101162.06;;;16.66;65.00
43420;BME280;29017;51.514;-0.178;2023-06-14T03:09:48;101161.03;;;16.67;65.29
43420;BME280;29017;51.514;-0.178;2023-06-14T03:12:16;101161.69;;;16.70;65.43
43420;BME280;29017;51.514;-0.178;2023-06-14T03:14:43;101149.03;;;16.72;65.16
43420;BME280;29017;51.514;-0.178;2023-06-14T03:17:13;101165.34;;;16.68;65.37
43420;BME280;29017;51.514;-0.178;2023-06-14T03:19:40;101155.28;;;16.64;65.83
43420;BME280;29017;51.514;-0.178;2023-06-14T03:22:08;101168.75;;;16.62;65.88
43420;BME280;29017;51.514;-0.178;2023-06-14T03:24:35;101145.72;;;16.55;66.31
43420;BME280;29017;51.514;-0.178;2023-06-14T03:27:03;101159.75;;;16.49;66.47
43420;BME280;29017;51.514;-0.178;2023-06-14T03:29:30;101165.59;;;16.44;67.01
43420;BME280;29017;51.514;-0.178;2023-06-14T03:32:02;101154.16;;;16.29;67.65
43420;BME280;29017;51.514;-0.178;2023-06-14T03:34:29;101158.19;;;16.25;67.89
43420;BME280;29017;51.514;-0.178;2023-06-14T03:36:57;101159.63;;;16.13;68.45
43420;BME280;29017;51.514;-0.178;2023-06-14T03:39:24;101163.28;;;16.12;69.31
43420;BME280;29017;51.514;-0.178;2023-06-14T03:41:51;101160.44;;;16.13;68.70
43420;BME280;29017;51.514;-0.178;2023-06-14T03:44:18;101164.00;;;16.06;69.49
43420;BME280;29017;51.514;-0.178;2023-06-14T03:46:46;101166.63;;;15.91;70.32
43420;BME280;29017;51.514;-0.178;2023-06-14T03:49:16;101164.78;;;15.92;70.22
43420;BME280;29017;51.514;-0.178;2023-06-14T03:51:43;101161.31;;;15.91;70.34
43420;BME280;29017;51.514;-0.178;2023-06-14T03:54:11;101174.03;;;15.96;70.55
43420;BME280;29017;51.514;-0.178;2023-06-14T03:56:59;101169.91;;;15.93;70.93
43420;BME280;29017;51.514;-0.178;2023-06-14T03:59:26;101168.09;;;15.94;71.63
43420;BME280;29017;51.514;-0.178;2023-06-14T04:01:54;101166.56;;;15.99;71.36
43420;BME280;29017;51.514;-0.178;2023-06-14T04:04:21;101173.31;;;16.02;71.26
43420;BME280;29017;51.514;-0.178;2023-06-14T04:06:56;101168.38;;;15.99;71.65
43420;BME280;29017;51.514;-0.178;2023-06-14T04:09:24;101172.56;;;15.93;71.81
43420;BME280;29017;51.514;-0.178;2023-06-14T04:11:52;101169.47;;;15.90;72.26
43420;BME280;29017;51.514;-0.178;2023-06-14T04:14:20;101165.44;;;15.94;72.62
43420;BME280;29017;51.514;-0.178;2023-06-14T04:16:48;101175.06;;;15.95;72.63
43420;BME280;29017;51.514;-0.178;2023-06-14T04:19:16;101173.19;;;15.95;72.47
43420;BME280;29017;51.514;-0.178;2023-06-14T04:21:43;101167.09;;;15.95;72.77
43420;BME280;29017;51.514;-0.178;2023-06-14T04:24:10;101171.88;;;15.99;72.61
43420;BME280;29017;51.514;-0.178;2023-06-14T04:26:44;101167.66;;;16.05;73.31
43420;BME280;29017;51.514;-0.178;2023-06-14T04:29:12;101170.31;;;16.05;72.94
43420;BME280;29017;51.514;-0.178;2023-06-14T04:31:43;101174.44;;;16.07;72.78
43420;BME280;29017;51.514;-0.178;2023-06-14T04:34:11;101171.25;;;16.12;72.86
43420;BME280;29017;51.514;-0.178;2023-06-14T04:36:43;101158.50;;;16.07;73.06
43420;BME280;29017;51.514;-0.178;2023-06-14T04:39:16;101168.47;;;16.05;73.82
43420;BME280;29017;51.514;-0.178;2023-06-14T04:41:46;101174.53;;;15.99;73.84
43420;BME280;29017;51.514;-0.178;2023-06-14T04:44:13;101178.34;;;15.97;74.03
43420;BME280;29017;51.514;-0.178;2023-06-14T04:46:43;101180.66;;;16.00;74.50
43420;BME280;29017;51.514;-0.178;2023-06-14T04:49:17;101179.34;;;15.96;74.52
43420;BME280;29017;51.514;-0.178;2023-06-14T04:51:45;101183.66;;;15.97;74.81
43420;BME280;29017;51.514;-0.178;2023-06-14T04:54:12;101190.25;;;16.01;74.98
43420;BME280;29017;51.514;-0.178;2023-06-14T04:56:43;101181.38;;;15.94;75.26
43420;BME280;29017;51.514;-0.178;2023-06-14T04:59:10;101189.34;;;15.94;75.54
43420;BME280;29017;51.514;-0.178;2023-06-14T05:01:44;101185.19;;;15.91;75.84
43420;BME280;29017;51.514;-0.178;2023-06-14T05:04:19;101192.63;;;15.96;75.83
43420;BME280;29017;51.514;-0.178;2023-06-14T05:06:48;101188.84;;;15.90;76.18
43420;BME280;29017;51.514;-0.178;2023-06-14T05:09:15;101188.38;;;15.87;76.70
43420;BME280;29017;51.514;-0.178;2023-06-14T05:11:43;101188.38;;;15.87;76.39
43420;BME280;29017;51.514;-0.178;2023-06-14T05:14:11;101192.31;;;15.91;76.49
43420;BME280;29017;51.514;-0.178;2023-06-14T05:16:38;101191.31;;;15.92;76.72
43420;BME280;29017;51.514;-0.178;2023-06-14T05:19:06;101188.91;;;16.05;76.03
43420;BME280;29017;51.514;-0.178;2023-06-14T05:21:34;101184.69;;;16.10;76.29
43420;BME280;29017;51.514;-0.178;2023-06-14T05:24:08;101181.13;;;16.18;76.04
43420;BME280;29017;51.514;-0.178;2023-06-14T05:26:36;101185.19;;;16.29;75.58
43420;BME280;29017;51.514;-0.178;2023-06-14T05:29:03;101187.97;;;16.35;75.77
43420;BME280;29017;51.514;-0.178;2023-06-14T05:31:30;101180.72;;;16.44;75.33
43420;BME280;29017;51.514;-0.178;2023-06-14T05:33:57;101187.13;;;16.49;75.66
43420;BME280;29017;51.514;-0.178;2023-06-14T05:36:25;101186.31;;;16.49;75.59
43420;BME280;29017;51.514;-0.178;2023-06-14T05:38:54;101184.47;;;16.49;75.78
43420;BME280;29017;51.514;-0.178;2023-06-14T05:41:28;101184.56;;;16.41;76.30
43420;BME280;29017;51.514;-0.178;2023-06-14T05:43:56;101186.88;;;16.44;76.18
43420;BME280;29017;51.514;-0.178;2023-06-14T05:46:23;101194.63;;;16.46;76.22
43420;BME280;29017;51.514;-0.178;2023-06-14T05:48:54;101194.91;;;16.51;76.25
43420;BME280;29017;51.514;-0.178;2023-06-14T05:51:22;101202.34;;;16.55;76.07
43420;BME280;29017;51.514;-0.178;2023-06-14T05:53:52;101190.91;;;16.55;76.61
43420;BME280;29017;51.514;-0.178;2023-06-14T05:56:19;101190.91;;;16.55;76.44
43420;BME280;29017;51.514;-0.178;2023-06-14T05:58:46;101190.44;;;16.66;75.86
43420;BME280;29017;51.514;-0.178;2023-06-14T06:01:14;101187.88;;;16.87;75.19
43420;BME280;29017;51.514;-0.178;2023-06-14T06:03:42;101188.25;;;16.99;74.90
43420;BME280;29017;51.514;-0.178;2023-06-14T06:06:13;101193.34;;;17.15;74.07
43420;BME280;29017;51.514;-0.178;2023-06-14T06:08:40;101196.00;;;17.15;74.14
43420;BME280;29017;51.514;-0.178;2023-06-14T06:11:07;101200.94;;;17.18;74.20
43420;BME280;29017;51.514;-0.178;2023-06-14T06:13:35;101197.25;;;17.34;73.45
43420;BME280;29017;51.514;-0.178;2023-06-14T06:16:03;101201.63;;;17.41;73.12
43420;BME280;29017;51.514;-0.178;2023-06-14T06:18:30;101196.88;;;17.37;73.63
43420;BME280;29017;51.514;-0.178;2023-06-14T06:20:57;101192.56;;;17.36;73.77
43420;BME280;29017;51.514;-0.178;2023-06-14T06:23:24;101198.50;;;17.38;73.66
43420;BME280;29017;51.514;-0.178;2023-06-14T06:25:51;101206.00;;;17.49;75.06
43420;BME280;29017;51.514;-0.178;2023-06-14T06:28:18;101202.41;;;17.57;73.30
43420;BME280;29017;51.514;-0.178;2023-06-14T06:30:45;101208.06;;;17.68;72.56
43420;BME280;29017;51.514;-0.178;2023-06-14T06:33:13;101205.81;;;17.86;72.31
43420;BME280;29017;51.514;-0.178;2023-06-14T06:35:40;101208.22;;;18.03;71.31
43420;BME280;29017;51.514;-0.178;2023-06-14T06:38:08;101207.38;;;18.02;71.46
43420;BME280;29017;51.514;-0.178;2023-06-14T06:40:36;101205.81;;;18.14;70.83
43420;BME280;29017;51.514;-0.178;2023-06-14T06:43:04;101209.44;;;18.28;70.60
43420;BME280;29017;51.514;-0.178;2023-06-14T06:45:35;101208.63;;;18.27;70.73
43420;BME280;29017;51.514;-0.178;2023-06-14T06:48:02;101215.19;;;18.31;71.06
43420;BME280;29017;51.514;-0.178;2023-06-14T06:50:29;101212.13;;;18.34;70.83
43420;BME280;29017;51.514;-0.178;2023-06-14T06:52:57;101206.22;;;18.39;70.51
43420;BME280;29017;51.514;-0.178;2023-06-14T06:55:24;101204.78;;;18.36;70.56
43420;BME280;29017;51.514;-0.178;2023-06-14T06:57:51;101211.78;;;18.44;71.25
43420;BME280;29017;51.514;-0.178;2023-06-14T07:00:20;101217.34;;;18.49;70.80
43420;BME280;29017;51.514;-0.178;2023-06-14T07:02:48;101215.78;;;18.55;70.55
43420;BME280;29017;51.514;-0.178;2023-06-14T07:05:16;101212.28;;;18.54;70.76
43420;BME280;29017;51.514;-0.178;2023-06-14T07:07:45;101224.97;;;18.52;71.02
43420;BME280;29017;51.514;-0.178;2023-06-14T07:10:11;101213.69;;;18.50;71.09
43420;BME280;29017;51.514;-0.178;2023-06-14T07:12:38;101225.81;;;18.53;71.30
43420;BME280;29017;51.514;-0.178;2023-06-14T07:15:06;101227.84;;;18.51;71.04
43420;BME280;29017;51.514;-0.178;2023-06-14T07:17:35;101230.59;;;18.57;71.51
43420;BME280;29017;51.514;-0.178;2023-06-14T07:20:03;101235.97;;;18.64;70.67
43420;BME280;29017;51.514;-0.178;2023-06-14T07:22:39;101232.47;;;18.63;70.73
43420;BME280;29017;51.514;-0.178;2023-06-14T07:25:11;101234.56;;;18.68;70.82
43420;BME280;29017;51.514;-0.178;2023-06-14T07:27:45;101226.97;;;18.71;70.61
43420;BME280;29017;51.514;-0.178;2023-06-14T07:30:12;101232.97;;;18.80;70.79
43420;BME280;29017;51.514;-0.178;2023-06-14T07:32:39;101228.72;;;18.92;70.71
43420;BME280;29017;51.514;-0.178;2023-06-14T07:35:07;101241.38;;;19.18;69.48
43420;BME280;29017;51.514;-0.178;2023-06-14T07:37:34;101229.22;;;19.56;67.80
43420;BME280;29017;51.514;-0.178;2023-06-14T07:40:01;101221.69;;;19.99;67.22
43420;BME280;29017;51.514;-0.178;2023-06-14T07:42:34;101233.47;;;21.09;64.18
43420;BME280;29017;51.514;-0.178;2023-06-14T07:45:05;101231.03;;;22.82;58.57
43420;BME280;29017;51.514;-0.178;2023-06-14T07:47:33;101238.25;;;23.96;53.74
43420;BME280;29017;51.514;-0.178;2023-06-14T07:50:00;101246.31;;;23.96;53.62
43420;BME280;29017;51.514;-0.178;2023-06-14T07:52:30;101255.63;;;23.94;52.83
43420;BME280;29017;51.514;-0.178;2023-06-14T07:54:58;101246.13;;;23.79;53.23
43420;BME280;29017;51.514;-0.178;2023-06-14T07:57:25;101250.34;;;23.46;53.49
43420;BME280;29017;51.514;-0.178;2023-06-14T07:59:53;101251.53;;;23.13;55.12
43420;BME280;29017;51.514;-0.178;2023-06-14T08:02:20;101253.19;;;22.78;56.42
43420;BME280;29017;51.514;-0.178;2023-06-14T08:04:47;101258.41;;;22.66;57.52
43420;BME280;29017;51.514;-0.178;2023-06-14T08:07:15;101252.75;;;22.56;57.91
43420;BME280;29017;51.514;-0.178;2023-06-14T08:09:42;101249.59;;;22.41;57.89
43420;BME280;29017;51.514;-0.178;2023-06-14T08:12:09;101245.44;;;22.20;59.57
43420;BME280;29017;51.514;-0.178;2023-06-14T08:14:39;101247.97;;;21.84;59.81
43420;BME280;29017;51.514;-0.178;2023-06-14T08:17:06;101251.84;;;21.88;59.97
43420;BME280;29017;51.514;-0.178;2023-06-14T08:19:33;101253.06;;;22.23;58.90
43420;BME280;29017;51.514;-0.178;2023-06-14T08:22:00;101254.22;;;22.34;57.88
43420;BME280;29017;51.514;-0.178;2023-06-14T08:24:28;101254.28;;;22.21;58.44
43420;BME280;29017;51.514;-0.178;2023-06-14T08:26:55;101252.09;;;22.11;58.89
43420;BME280;29017;51.514;-0.178;2023-06-14T08:29:23;101252.69;;;22.63;57.62
43420;BME280;29017;51.514;-0.178;2023-06-14T08:31:49;101264.38;;;23.29;55.55
43420;BME280;29017;51.514;-0.178;2023-06-14T08:34:17;101262.78;;;24.00;53.39
43420;BME280;29017;51.514;-0.178;2023-06-14T08:36:44;101257.38;;;24.41;51.58
43420;BME280;29017;51.514;-0.178;2023-06-14T08:39:11;101265.84;;;24.15;53.60
43420;BME280;29017;51.514;-0.178;2023-06-14T08:41:38;101260.22;;;23.63;54.84
43420;BME280;29017;51.514;-0.178;2023-06-14T08:44:05;101259.41;;;23.44;55.05
43420;BME280;29017;51.514;-0.178;2023-06-14T08:46:37;101258.44;;;23.39;55.29
43420;BME280;29017;51.514;-0.178;2023-06-14T08:49:04;101258.28;;;23.04;56.25
43420;BME280;29017;51.514;-0.178;2023-06-14T08:51:35;101253.69;;;23.23;56.27
43420;BME280;29017;51.514;-0.178;2023-06-14T08:54:03;101258.72;;;23.19;55.60
43420;BME280;29017;51.514;-0.178;2023-06-14T08:56:31;101253.25;;;23.08;56.29
43420;BME280;29017;51.514;-0.178;2023-06-14T08:59:00;101253.84;;;22.91;56.82
43420;BME280;29017;51.514;-0.178;2023-06-14T09:01:33;101255.72;;;22.91;57.24
43420;BME280;29017;51.514;-0.178;2023-06-14T09:04:01;101251.53;;;22.77;58.12
43420;BME280;29017;51.514;-0.178;2023-06-14T09:06:30;101254.69;;;22.92;57.67
43420;BME280;29017;51.514;-0.178;2023-06-14T09:08:57;101261.41;;;23.19;57.97
43420;BME280;29017;51.514;-0.178;2023-06-14T09:11:24;101263.16;;;23.62;56.46
43420;BME280;29017;51.514;-0.178;2023-06-14T09:13:53;101268.75;;;23.60;55.01
43420;BME280;29017;51.514;-0.178;2023-06-14T09:16:20;101267.44;;;23.51;54.91
43420;BME280;29017;51.514;-0.178;2023-06-14T09:18:47;101260.03;;;23.28;55.87
43420;BME280;29017;51.514;-0.178;2023-06-14T09:21:17;101269.81;;;23.23;55.81
43420;BME280;29017;51.514;-0.178;2023-06-14T09:23:45;101263.56;;;23.11;56.61
43420;BME280;29017;51.514;-0.178;2023-06-14T09:26:17;101273.34;;;23.05;56.57
43420;BME280;29017;51.514;-0.178;2023-06-14T09:28:47;101264.53;;;22.98;57.06
43420;BME280;29017;51.514;-0.178;2023-06-14T09:31:19;101267.56;;;23.01;57.20
43420;BME280;29017;51.514;-0.178;2023-06-14T09:33:48;101271.09;;;23.02;57.03
43420;BME280;29017;51.514;-0.178;2023-06-14T09:36:18;101270.72;;;22.98;56.80
43420;BME280;29017;51.514;-0.178;2023-06-14T09:38:53;101270.41;;;23.07;56.70
43420;BME280;29017;51.514;-0.178;2023-06-14T09:41:37;101269.53;;;23.13;57.29
43420;BME280;29017;51.514;-0.178;2023-06-14T09:44:06;101270.63;;;23.23;56.92
43420;BME280;29017;51.514;-0.178;2023-06-14T09:46:38;101277.47;;;23.37;55.57
43420;BME280;29017;51.514;-0.178;2023-06-14T09:49:05;101272.94;;;23.56;54.51
43420;BME280;29017;51.514;-0.178;2023-06-14T09:51:35;101268.66;;;23.67;54.30
43420;BME280;29017;51.514;-0.178;2023-06-14T09:54:08;101279.31;;;23.73;54.48
43420;BME280;29017;51.514;-0.178;2023-06-14T09:56:47;101263.22;;;23.85;54.20
43420;BME280;29017;51.514;-0.178;2023-06-14T09:59:21;101270.50;;;23.96;54.29
43420;BME280;29017;51.514;-0.178;2023-06-14T10:01:58;101277.41;;;24.04;52.83
43420;BME280;29017;51.514;-0.178;2023-06-14T10:04:27;101268.78;;;24.13;53.02
43420;BME280;29017;51.514;-0.178;2023-06-14T10:06:56;101276.19;;;24.29;52.29
43420;BME280;29017;51.514;-0.178;2023-06-14T10:09:23;101269.53;;;24.44;52.32
43420;BME280;29017;51.514;-0.178;2023-06-14T10:11:51;101269.66;;;24.49;52.70
43420;BME280;29017;51.514;-0.178;2023-06-14T10:14:19;101269.31;;;24.57;52.58
43420;BME280;29017;51.514;-0.178;2023-06-14T10:16:54;101273.06;;;24.67;52.03
43420;BME280;29017;51.514;-0.178;2023-06-14T10:22:06;101271.06;;;24.86;51.10
43420;BME280;29017;51.514;-0.178;2023-06-14T10:24:44;101271.19;;;25.03;49.53
43420;BME280;29017;51.514;-0.178;2023-06-14T10:27:15;101271.31;;;25.08;50.53
43420;BME280;29017;51.514;-0.178;2023-06-14T10:32:21;101264.03;;;25.08;50.67
43420;BME280;29017;51.514;-0.178;2023-06-14T10:35:00;101259.56;;;25.14;49.69
43420;BME280;29017;51.514;-0.178;2023-06-14T10:37:28;101257.34;;;25.11;49.42
43420;BME280;29017;51.514;-0.178;2023-06-14T10:39:56;101263.16;;;25.20;48.46
43420;BME280;29017;51.514;-0.178;2023-06-14T10:42:28;101254.41;;;25.24;47.64
43420;BME280;29017;51.514;-0.178;2023-06-14T10:44:58;101266.06;;;25.30;48.16
43420;BME280;29017;51.514;-0.178;2023-06-14T10:47:32;101260.44;;;25.31;47.20
43420;BME280;29017;51.514;-0.178;2023-06-14T10:52:32;101262.31;;;25.31;47.46
43420;BME280;29017;51.514;-0.178;2023-06-14T10:55:08;101268.31;;;25.33;47.69
43420;BME280;29017;51.514;-0.178;2023-06-14T10:57:40;101255.38;;;25.35;48.01
43420;BME280;29017;51.514;-0.178;2023-06-14T11:00:27;101259.50;;;25.37;48.19
43420;BME280;29017;51.514;-0.178;2023-06-14T11:11:00;101253.16;;;25.72;46.60
43420;BME280;29017;51.514;-0.178;2023-06-14T11:13:27;101252.19;;;25.78;46.10
43420;BME280;29017;51.514;-0.178;2023-06-14T11:15:58;101256.03;;;25.82;45.96
43420;BME280;29017;51.514;-0.178;2023-06-14T11:18:28;101258.00;;;25.86;44.03
43420;BME280;29017;51.514;-0.178;2023-06-14T11:20:55;101248.25;;;25.85;44.06
43420;BME280;29017;51.514;-0.178;2023-06-14T11:23:22;101252.59;;;25.86;44.63
43420;BME280;29017;51.514;-0.178;2023-06-14T11:25:51;101241.00;;;25.86;44.85
43420;BME280;29017;51.514;-0.178;2023-06-14T11:28:18;101241.81;;;25.86;44.14
43420;BME280;29017;51.514;-0.178;2023-06-14T11:30:48;101240.28;;;25.90;44.53
43420;BME280;29017;51.514;-0.178;2023-06-14T11:33:18;101241.16;;;25.96;44.67
43420;BME280;29017;51.514;-0.178;2023-06-14T11:35:45;101247.31;;;26.08;42.93
43420;BME280;29017;51.514;-0.178;2023-06-14T11:38:12;101246.25;;;26.09;42.86
43420;BME280;29017;51.514;-0.178;2023-06-14T11:40:40;101240.34;;;26.12;42.83
43420;BME280;29017;51.514;-0.178;2023-06-14T11:43:07;101243.88;;;26.13;43.47
43420;BME280;29017;51.514;-0.178;2023-06-14T11:45:47;101232.22;;;26.24;43.56
43420;BME280;29017;51.514;-0.178;2023-06-14T11:48:37;101239.97;;;26.20;43.23
43420;BME280;29017;51.514;-0.178;2023-06-14T11:51:04;101232.53;;;26.27;42.90
43420;BME280;29017;51.514;-0.178;2023-06-14T11:53:31;101228.53;;;26.30;43.08
43420;BME280;29017;51.514;-0.178;2023-06-14T11:55:59;101219.53;;;26.24;42.35
43420;BME280;29017;51.514;-0.178;2023-06-14T11:58:29;101236.44;;;26.20;41.84
43420;BME280;29017;51.514;-0.178;2023-06-14T12:00:56;101233.03;;;26.24;41.78
43420;BME280;29017;51.514;-0.178;2023-06-14T12:03:24;101220.69;;;26.28;41.36
43420;BME280;29017;51.514;-0.178;2023-06-14T12:06:07;101229.66;;;26.17;41.08
43420;BME280;29017;51.514;-0.178;2023-06-14T12:08:37;101231.53;;;26.17;41.31
43420;BME280;29017;51.514;-0.178;2023-06-14T12:11:11;101231.78;;;26.15;41.91
43420;BME280;29017;51.514;-0.178;2023-06-14T12:13:42;101231.44;;;26.12;42.17
43420;BME280;29017;51.514;-0.178;2023-06-14T12:16:10;101224.25;;;26.17;42.23
43420;BME280;29017;51.514;-0.178;2023-06-14T12:18:39;101221.50;;;26.29;40.63
43420;BME280;29017;51.514;-0.178;2023-06-14T12:21:08;101220.25;;;26.36;41.36
43420;BME280;29017;51.514;-0.178;2023-06-14T12:23:48;101223.91;;;26.47;39.34
43420;BME280;29017;51.514;-0.178;2023-06-14T12:26:18;101223.16;;;26.52;40.85
43420;BME280;29017;51.514;-0.178;2023-06-14T12:28:46;101217.16;;;26.45;40.21
43420;BME280;29017;51.514;-0.178;2023-06-14T12:31:15;101212.22;;;26.42;40.29
43420;BME280;29017;51.514;-0.178;2023-06-14T12:33:43;101220.59;;;26.40;40.04
43420;BME280;29017;51.514;-0.178;2023-06-14T12:36:13;101216.63;;;26.48;39.68
43420;BME280;29017;51.514;-0.178;2023-06-14T12:38:40;101220.16;;;26.48;39.60
43420;BME280;29017;51.514;-0.178;2023-06-14T12:41:08;101217.16;;;26.45;38.57
43420;BME280;29017;51.514;-0.178;2023-06-14T12:43:35;101220.16;;;26.48;38.53
43420;BME280;29017;51.514;-0.178;2023-06-14T12:46:02;101225.28;;;26.66;36.66
43420;BME280;29017;51.514;-0.178;2023-06-14T12:48:29;101224.78;;;26.69;35.33
43420;BME280;29017;51.514;-0.178;2023-06-14T12:50:58;101222.00;;;26.64;37.08
43420;BME280;29017;51.514;-0.178;2023-06-14T12:53:25;101221.25;;;26.69;37.64
43420;BME280;29017;51.514;-0.178;2023-06-14T12:55:52;101227.03;;;26.77;37.71
43420;BME280;29017;51.514;-0.178;2023-06-14T12:58:19;101218.28;;;26.87;36.78
43420;BME280;29017;51.514;-0.178;2023-06-14T13:00:47;101222.28;;;26.85;36.05
43420;BME280;29017;51.514;-0.178;2023-06-14T13:03:14;101229.81;;;26.82;37.27
43420;BME280;29017;51.514;-0.178;2023-06-14T13:05:43;101220.97;;;26.87;37.43
43420;BME280;29017;51.514;-0.178;2023-06-14T13:08:10;101224.56;;;26.93;36.61